sensor_id;sensor_type;location;lat;lon;timestamp;pressure;altitude;pressure_sealevel;temperature;humidity
71194;BME280;58903;47.210;8.618;2024-03-07T00:01:12;94460.44;;;23.27;47.48
71194;BME280;58903;47.210;8.618;2024-03-07T00:04:04;94459.19;;;23.28;47.52
71194;BME280;58903;47.210;8.618;2024-03-07T00:06:32;94457.19;;;23.29;47.67
71194;BME280;58903;47.210;8.618;2024-03-07T00:09:07;94463.66;;;23.25;47.91
71194;BME280;58903;47.210;8.618;2024-03-07T00:11:49;94444.69;;;23.22;47.47
71194;BME280;58903;47.210;8.618;2024-03-07T00:14:14;94449.94;;;23.25;47.45
71194;BME280;58903;47.210;8.618;2024-03-07T00:16:45;94453.44;;;23.26;47.54
71194;BME280;58903;47.210;8.618;2024-03-07T00:19:16;94441.19;;;23.21;47.46
71194;BME280;58903;47.210;8.618;2024-03-07T00:21:42;94454.69;;;23.25;47.12
71194;BME280;58903;47.210;8.618;2024-03-07T00:24:10;94450.69;;;23.26;47.42
71194;BME280;58903;47.210;8.618;2024-03-07T00:26:46;94451.19;;;23.24;47.27
71194;BME280;58903;47.210;8.618;2024-03-07T00:29:12;94446.94;;;23.23;47.31
71194;BME280;58903;47.210;8.618;2024-03-07T00:31:40;94434.75;;;23.24;47.29
71194;BME280;58903;47.210;8.618;2024-03-07T00:34:07;94437.47;;;23.24;47.11
71194;BME280;58903;47.210;8.618;2024-03-07T00:36:50;94435.47;;;23.25;47.67
71194;BME280;58903;47.210;8.618;2024-03-07T00:39:27;94429.47;;;23.21;47.01
71194;BME280;58903;47.210;8.618;2024-03-07T00:42:15;94434.75;;;23.24;46.96
71194;BME280;58903;47.210;8.618;2024-03-07T00:44:43;94432.72;;;23.19;47.11
71194;BME280;58903;47.210;8.618;2024-03-07T00:47:09;94427.72;;;23.23;46.60
71194;BME280;58903;47.210;8.618;2024-03-07T00:49:35;94432.00;;;23.24;46.96
71194;BME280;58903;47.210;8.618;2024-03-07T00:52:11;94425.75;;;23.24;46.94
71194;BME280;58903;47.210;8.618;2024-03-07T00:54:41;94418.25;;;23.19;47.33
71194;BME280;58903;47.210;8.618;2024-03-07T00:57:23;94417.47;;;23.18;47.14
71194;BME280;58903;47.210;8.618;2024-03-07T00:59:52;94413.25;;;23.17;47.16
71194;BME280;58903;47.210;8.618;2024-03-07T01:05:43;94407.78;;;23.17;47.13
71194;BME280;58903;47.210;8.618;2024-03-07T01:08:25;94415.28;;;23.22;47.21
71194;BME280;58903;47.210;8.618;2024-03-07T01:10:55;94399.53;;;23.17;47.15
71194;BME280;58903;47.210;8.618;2024-03-07T01:13:21;94400.81;;;23.22;46.69
71194;BME280;58903;47.210;8.618;2024-03-07T01:16:13;94400.28;;;23.23;47.03
71194;BME280;58903;47.210;8.618;2024-03-07T01:18:50;94398.81;;;23.22;47.30
71194;BME280;58903;47.210;8.618;2024-03-07T01:21:41;94397.56;;;23.23;46.85
71194;BME280;58903;47.210;8.618;2024-03-07T01:24:27;94394.81;;;23.23;46.81
71194;BME280;58903;47.210;8.618;2024-03-07T01:27:30;94387.84;;;23.22;47.23
71194;BME280;58903;47.210;8.618;2024-03-07T01:30:26;94379.59;;;23.22;46.85
71194;BME280;58903;47.210;8.618;2024-03-07T01:33:07;94383.06;;;23.23;46.66
71194;BME280;58903;47.210;8.618;2024-03-07T01:35:43;94379.34;;;23.20;47.27
71194;BME280;58903;47.210;8.618;2024-03-07T01:38:28;94367.63;;;23.20;47.14
71194;BME280;58903;47.210;8.618;2024-03-07T01:41:08;94371.38;;;23.22;46.95
71194;BME280;58903;47.210;8.618;2024-03-07T01:43:34;94361.88;;;23.18;47.25
71194;BME280;58903;47.210;8.618;2024-03-07T01:46:01;94358.88;;;23.21;46.81
71194;BME280;58903;47.210;8.618;2024-03-07T01:48:30;94368.63;;;23.22;46.97
71194;BME280;58903;47.210;8.618;2024-03-07T01:50:59;94355.88;;;23.19;46.49
71194;BME280;58903;47.210;8.618;2024-03-07T01:53:35;94351.16;;;23.20;46.55
71194;BME280;58903;47.210;8.618;2024-03-07T01:56:34;94350.91;;;23.23;46.59
71194;BME280;58903;47.210;8.618;2024-03-07T01:59:22;94347.66;;;23.19;46.34
71194;BME280;58903;47.210;8.618;2024-03-07T02:02:27;94352.91;;;23.23;47.01
71194;BME280;58903;47.210;8.618;2024-03-07T02:05:02;94341.19;;;23.22;46.62
71194;BME280;58903;47.210;8.618;2024-03-07T02:07:45;94349.41;;;23.22;46.76
71194;BME280;58903;47.210;8.618;2024-03-07T02:10:13;94341.19;;;23.22;46.65
71194;BME280;58903;47.210;8.618;2024-03-07T02:12:55;94337.91;;;23.18;46.72
71194;BME280;58903;47.210;8.618;2024-03-07T02:15:21;94333.69;;;23.17;46.72
71194;BME280;58903;47.210;8.618;2024-03-07T02:17:48;94342.41;;;23.21;46.61
71194;BME280;58903;47.210;8.618;2024-03-07T02:20:14;94340.94;;;23.20;46.87
71194;BME280;58903;47.210;8.618;2024-03-07T02:22:45;94331.94;;;23.14;46.66
71194;BME280;58903;47.210;8.618;2024-03-07T02:25:11;94333.94;;;23.19;46.52
71194;BME280;58903;47.210;8.618;2024-03-07T02:27:38;94323.47;;;23.18;46.57
71194;BME280;58903;47.210;8.618;2024-03-07T02:30:05;94323.47;;;23.18;46.21
71194;BME280;58903;47.210;8.618;2024-03-07T02:32:38;94322.47;;;23.21;46.67
71194;BME280;58903;47.210;8.618;2024-03-07T02:35:04;94322.22;;;23.19;46.67
71194;BME280;58903;47.210;8.618;2024-03-07T02:37:31;94326.22;;;23.23;46.30
71194;BME280;58903;47.210;8.618;2024-03-07T02:39:57;94315.75;;;23.22;46.23
71194;BME280;58903;47.210;8.618;2024-03-07T02:42:25;94313.75;;;23.22;46.58
71194;BME280;58903;47.210;8.618;2024-03-07T02:44:54;94317.72;;;23.21;46.04
71194;BME280;58903;47.210;8.618;2024-03-07T02:47:22;94326.22;;;23.23;46.32
71194;BME280;58903;47.210;8.618;2024-03-07T02:49:49;94313.72;;;23.17;46.71
71194;BME280;58903;47.210;8.618;2024-03-07T02:52:42;94314.97;;;23.21;46.53
71194;BME280;58903;47.210;8.618;2024-03-07T02:55:19;94320.47;;;23.21;46.25
71194;BME280;58903;47.210;8.618;2024-03-07T02:57:56;94316.25;;;23.20;46.66
71194;BME280;58903;47.210;8.618;2024-03-07T03:00:56;94314.97;;;23.21;46.62
71194;BME280;58903;47.210;8.618;2024-03-07T03:03:33;94314.72;;;23.19;46.32
71194;BME280;58903;47.210;8.618;2024-03-07T03:06:14;94306.75;;;23.21;46.62
71194;BME280;58903;47.210;8.618;2024-03-07T03:09:00;94311.72;;;23.23;46.00
71194;BME280;58903;47.210;8.618;2024-03-07T03:11:27;94304.00;;;23.21;46.65
71194;BME280;58903;47.210;8.618;2024-03-07T03:13:57;94310.75;;;23.20;46.50
71194;BME280;58903;47.210;8.618;2024-03-07T03:16:34;94301.00;;;23.19;46.17
71194;BME280;58903;47.210;8.618;2024-03-07T03:19:17;94300.50;;;23.21;46.67
71194;BME280;58903;47.210;8.618;2024-03-07T03:21:44;94298.28;;;23.19;46.27
71194;BME280;58903;47.210;8.618;2024-03-07T03:24:20;94303.50;;;23.17;46.21
71194;BME280;58903;47.210;8.618;2024-03-07T03:26:48;94296.75;;;23.18;46.63
71194;BME280;58903;47.210;8.618;2024-03-07T03:29:17;94308.75;;;23.21;46.06
71194;BME280;58903;47.210;8.618;2024-03-07T03:31:44;94295.28;;;23.17;46.23
71194;BME280;58903;47.210;8.618;2024-03-07T03:34:42;94307.50;;;23.22;46.52
71194;BME280;58903;47.210;8.618;2024-03-07T03:37:10;94296.28;;;23.20;46.22
71194;BME280;58903;47.210;8.618;2024-03-07T03:39:37;94295.53;;;23.19;46.65
71194;BME280;58903;47.210;8.618;2024-03-07T03:42:04;94293.28;;;23.18;46.50
71194;BME280;58903;47.210;8.618;2024-03-07T03:44:30;94295.53;;;23.19;46.21
71194;BME280;58903;47.210;8.618;2024-03-07T03:46:56;94291.28;;;23.18;46.16
71194;BME280;58903;47.210;8.618;2024-03-07T03:49:27;94284.06;;;23.15;45.77
71194;BME280;58903;47.210;8.618;2024-03-07T03:51:52;94286.06;;;23.20;45.99
71194;BME280;58903;47.210;8.618;2024-03-07T03:54:18;94291.28;;;23.18;45.75
71194;BME280;58903;47.210;8.618;2024-03-07T03:56:53;94289.28;;;23.19;46.30
71194;BME280;58903;47.210;8.618;2024-03-07T03:59:25;94285.31;;;23.20;45.98
71194;BME280;58903;47.210;8.618;2024-03-07T04:04:59;94282.31;;;23.18;46.79
71194;BME280;58903;47.210;8.618;2024-03-07T04:07:34;94278.06;;;23.17;46.16
71194;BME280;58903;47.210;8.618;2024-03-07T04:10:19;94279.56;;;23.18;45.95
71194;BME280;58903;47.210;8.618;2024-03-07T04:13:00;94269.06;;;23.16;46.15
71194;BME280;58903;47.210;8.618;2024-03-07T04:15:45;94260.59;;;23.14;46.32
71194;BME280;58903;47.210;8.618;2024-03-07T04:18:22;94270.59;;;23.17;45.92
71194;BME280;58903;47.210;8.618;2024-03-07T04:20:54;94272.06;;;23.18;46.29
71194;BME280;58903;47.210;8.618;2024-03-07T04:23:29;94270.59;;;23.17;46.05
71194;BME280;58903;47.210;8.618;2024-03-07T04:26:24;94271.34;;;23.18;45.86
71194;BME280;58903;47.210;8.618;2024-03-07T04:29:23;94266.59;;;23.18;46.40
71194;BME280;58903;47.210;8.618;2024-03-07T04:31:53;94264.09;;;23.15;46.14
71194;BME280;58903;47.210;8.618;2024-03-07T04:34:52;94266.34;;;23.16;46.20
71194;BME280;58903;47.210;8.618;2024-03-07T04:40:23;94267.84;;;23.17;46.22
71194;BME280;58903;47.210;8.618;2024-03-07T04:42:52;94268.84;;;23.20;45.46
71194;BME280;58903;47.210;8.618;2024-03-07T04:45:18;94266.59;;;23.18;46.07
71194;BME280;58903;47.210;8.618;2024-03-07T04:47:45;94267.84;;;23.17;45.99
71194;BME280;58903;47.210;8.618;2024-03-07T04:50:12;94256.09;;;23.17;45.70
71194;BME280;58903;47.210;8.618;2024-03-07T04:52:54;94260.84;;;23.16;46.35
71194;BME280;58903;47.210;8.618;2024-03-07T04:55:23;94265.09;;;23.17;45.93
71194;BME280;58903;47.210;8.618;2024-03-07T04:57:50;94260.59;;;23.14;46.19
71194;BME280;58903;47.210;8.618;2024-03-07T05:00:17;94266.34;;;23.16;45.95
71194;BME280;58903;47.210;8.618;2024-03-07T05:02:49;94264.34;;;23.17;46.38
71194;BME280;58903;47.210;8.618;2024-03-07T05:05:16;94256.88;;;23.17;45.49
71194;BME280;58903;47.210;8.618;2024-03-07T05:07:48;94255.34;;;23.16;45.93
71194;BME280;58903;47.210;8.618;2024-03-07T05:10:17;94250.88;;;23.13;45.73
71194;BME280;58903;47.210;8.618;2024-03-07T05:12:56;94255.59;;;23.18;45.94
71194;BME280;58903;47.210;8.618;2024-03-07T05:15:52;94255.59;;;23.18;45.80
71194;BME280;58903;47.210;8.618;2024-03-07T05:18:38;94242.66;;;23.13;45.86
71194;BME280;58903;47.210;8.618;2024-03-07T05:21:34;94250.88;;;23.19;46.28
71194;BME280;58903;47.210;8.618;2024-03-07T05:24:15;94253.88;;;23.15;46.30
71194;BME280;58903;47.210;8.618;2024-03-07T05:26:55;94259.59;;;23.17;45.95
71194;BME280;58903;47.210;8.618;2024-03-07T05:29:24;94271.31;;;23.12;46.03
71194;BME280;58903;47.210;8.618;2024-03-07T05:32:25;94269.09;;;23.11;46.48
71194;BME280;58903;47.210;8.618;2024-03-07T05:35:00;94269.34;;;23.13;46.32
71194;BME280;58903;47.210;8.618;2024-03-07T05:37:38;94267.09;;;23.11;46.20
71194;BME280;58903;47.210;8.618;2024-03-07T05:40:20;94267.84;;;23.17;47.50
71194;BME280;58903;47.210;8.618;2024-03-07T05:42:46;94260.59;;;23.25;48.18
71194;BME280;58903;47.210;8.618;2024-03-07T05:45:12;94268.09;;;23.25;48.04
71194;BME280;58903;47.210;8.618;2024-03-07T05:47:40;94264.34;;;23.28;47.72
71194;BME280;58903;47.210;8.618;2024-03-07T05:50:07;94267.88;;;23.34;47.72
71194;BME280;58903;47.210;8.618;2024-03-07T05:52:43;94268.09;;;23.31;49.07
71194;BME280;58903;47.210;8.618;2024-03-07T05:55:45;94267.63;;;23.38;47.28
71194;BME280;58903;47.210;8.618;2024-03-07T05:58:24;94263.88;;;23.35;46.00
71194;BME280;58903;47.210;8.618;2024-03-07T06:01:20;94258.34;;;23.30;46.39
71194;BME280;58903;47.210;8.618;2024-03-07T06:04:01;94255.63;;;23.24;46.63
71194;BME280;58903;47.210;8.618;2024-03-07T06:06:29;94249.38;;;23.18;46.34
71194;BME280;58903;47.210;8.618;2024-03-07T06:09:04;94249.88;;;23.16;46.08
71194;BME280;58903;47.210;8.618;2024-03-07T06:11:50;94258.13;;;23.22;46.81
71194;BME280;58903;47.210;8.618;2024-03-07T06:14:31;94255.59;;;23.18;46.82
71194;BME280;58903;47.210;8.618;2024-03-07T06:17:31;94257.38;;;23.16;46.57
71194;BME280;58903;47.210;8.618;2024-03-07T06:20:06;94257.38;;;23.21;47.25
71194;BME280;58903;47.210;8.618;2024-03-07T06:22:58;94259.59;;;23.23;47.46
71194;BME280;58903;47.210;8.618;2024-03-07T06:25:27;94260.34;;;23.23;46.16
71194;BME280;58903;47.210;8.618;2024-03-07T06:28:19;94258.34;;;23.18;46.73
71194;BME280;58903;47.210;8.618;2024-03-07T06:31:16;94260.34;;;23.23;46.63
71194;BME280;58903;47.210;8.618;2024-03-07T06:33:45;94250.13;;;23.24;46.03
71194;BME280;58903;47.210;8.618;2024-03-07T06:36:11;94247.41;;;23.24;45.87
71194;BME280;58903;47.210;8.618;2024-03-07T06:38:37;94245.91;;;23.17;45.46
71194;BME280;58903;47.210;8.618;2024-03-07T06:41:05;94257.38;;;23.21;45.60
71194;BME280;58903;47.210;8.618;2024-03-07T06:43:36;94247.88;;;23.17;45.42
71194;BME280;58903;47.210;8.618;2024-03-07T06:46:02;94254.63;;;23.21;45.75
71194;BME280;58903;47.210;8.618;2024-03-07T06:48:28;94254.88;;;23.18;45.84
71194;BME280;58903;47.210;8.618;2024-03-07T06:50:54;94252.88;;;23.18;45.80
71194;BME280;58903;47.210;8.618;2024-03-07T06:53:20;94260.59;;;23.14;45.53
71194;BME280;58903;47.210;8.618;2024-03-07T06:55:52;94263.34;;;23.20;46.11
71194;BME280;58903;47.210;8.618;2024-03-07T06:58:20;94264.38;;;23.22;46.29
71194;BME280;58903;47.210;8.618;2024-03-07T07:01:12;94262.59;;;23.25;46.35
71194;BME280;58903;47.210;8.618;2024-03-07T07:03:48;94265.34;;;23.25;45.70
71194;BME280;58903;47.210;8.618;2024-03-07T07:06:16;94259.63;;;23.29;45.91
71194;BME280;58903;47.210;8.618;2024-03-07T07:08:49;94259.88;;;23.36;46.19
71194;BME280;58903;47.210;8.618;2024-03-07T07:11:25;94250.94;;;23.36;46.84
71194;BME280;58903;47.210;8.618;2024-03-07T07:14:01;94256.13;;;23.45;47.42
71194;BME280;58903;47.210;8.618;2024-03-07T07:16:35;94254.88;;;23.62;53.53
71194;BME280;58903;47.210;8.618;2024-03-07T07:19:07;94248.88;;;23.80;55.27
71194;BME280;58903;47.210;8.618;2024-03-07T07:21:35;94247.13;;;24.05;56.11
71194;BME280;58903;47.210;8.618;2024-03-07T07:27:21;94253.47;;;24.46;55.78
71194;BME280;58903;47.210;8.618;2024-03-07T07:29:56;94254.88;;;24.64;55.34
71194;BME280;58903;47.210;8.618;2024-03-07T07:32:25;94246.06;;;24.71;52.37
71194;BME280;58903;47.210;8.618;2024-03-07T07:38:18;94250.34;;;24.66;48.20
71194;BME280;58903;47.210;8.618;2024-03-07T07:40:45;94255.13;;;24.60;45.25
71194;BME280;58903;47.210;8.618;2024-03-07T07:43:21;94251.66;;;24.54;45.64
71194;BME280;58903;47.210;8.618;2024-03-07T07:45:48;94246.47;;;24.45;45.19
71194;BME280;58903;47.210;8.618;2024-03-07T07:48:19;94251.94;;;24.45;45.59
71194;BME280;58903;47.210;8.618;2024-03-07T07:50:49;94245.97;;;24.41;45.22
71194;BME280;58903;47.210;8.618;2024-03-07T07:53:36;94248.22;;;24.43;45.23
71194;BME280;58903;47.210;8.618;2024-03-07T07:56:20;94245.97;;;24.41;44.68
71194;BME280;58903;47.210;8.618;2024-03-07T07:58:48;94247.97;;;24.41;45.24
71194;BME280;58903;47.210;8.618;2024-03-07T08:01:14;94245.22;;;24.41;45.69
71194;BME280;58903;47.210;8.618;2024-03-07T08:03:44;94230.00;;;24.34;42.38
71194;BME280;58903;47.210;8.618;2024-03-07T08:06:11;94238.53;;;24.25;33.60
71194;BME280;58903;47.210;8.618;2024-03-07T08:08:40;94236.59;;;24.09;35.78
71194;BME280;58903;47.210;8.618;2024-03-07T08:11:06;94230.13;;;24.01;35.71
71194;BME280;58903;47.210;8.618;2024-03-07T08:13:41;94232.84;;;23.95;32.59
71194;BME280;58903;47.210;8.618;2024-03-07T08:16:25;94234.59;;;23.93;32.30
71194;BME280;58903;47.210;8.618;2024-03-07T08:19:08;94227.88;;;23.94;33.07
71194;BME280;58903;47.210;8.618;2024-03-07T08:21:47;94231.09;;;23.92;33.05
71194;BME280;58903;47.210;8.618;2024-03-07T08:24:29;94226.88;;;23.91;33.37
71194;BME280;58903;47.210;8.618;2024-03-07T08:27:00;94229.16;;;23.87;33.68
71194;BME280;58903;47.210;8.618;2024-03-07T08:29:37;94228.63;;;23.89;34.57
71194;BME280;58903;47.210;8.618;2024-03-07T08:32:16;94234.59;;;23.93;35.62
71194;BME280;58903;47.210;8.618;2024-03-07T08:34:47;94230.63;;;23.94;34.97
71194;BME280;58903;47.210;8.618;2024-03-07T08:37:22;94221.13;;;23.95;35.49
71194;BME280;58903;47.210;8.618;2024-03-07T08:39:54;94216.66;;;23.92;35.80
71194;BME280;58903;47.210;8.618;2024-03-07T08:42:36;94222.63;;;23.90;35.94
71194;BME280;58903;47.210;8.618;2024-03-07T08:45:04;94236.38;;;23.96;36.15
71194;BME280;58903;47.210;8.618;2024-03-07T08:47:34;94224.63;;;23.95;36.43
71194;BME280;58903;47.210;8.618;2024-03-07T08:50:01;94231.38;;;23.94;37.06
71194;BME280;58903;47.210;8.618;2024-03-07T08:52:47;94211.16;;;23.92;36.87
71194;BME280;58903;47.210;8.618;2024-03-07T08:55:26;94221.38;;;23.97;36.80
71194;BME280;58903;47.210;8.618;2024-03-07T08:57:56;94218.63;;;23.97;37.02
71194;BME280;58903;47.210;8.618;2024-03-07T09:00:51;94220.88;;;23.98;37.06
71194;BME280;58903;47.210;8.618;2024-03-07T09:03:32;94215.13;;;23.96;37.76
71194;BME280;58903;47.210;8.618;2024-03-07T09:09:13;94212.38;;;24.02;38.38
71194;BME280;58903;47.210;8.618;2024-03-07T09:11:41;94203.63;;;23.98;38.13
71194;BME280;58903;47.210;8.618;2024-03-07T09:14:08;94199.63;;;23.99;38.71
71194;BME280;58903;47.210;8.618;2024-03-07T09:17:08;94208.66;;;24.05;37.85
71194;BME280;58903;47.210;8.618;2024-03-07T09:19:50;94211.84;;;24.04;38.12
71194;BME280;58903;47.210;8.618;2024-03-07T09:22:16;94208.13;;;24.01;38.52
71194;BME280;58903;47.210;8.618;2024-03-07T09:24:51;94216.63;;;24.03;37.44
71194;BME280;58903;47.210;8.618;2024-03-07T09:27:27;94209.63;;;24.02;38.54
71194;BME280;58903;47.210;8.618;2024-03-07T09:30:02;94201.63;;;24.04;38.17
71194;BME280;58903;47.210;8.618;2024-03-07T09:32:58;94200.41;;;24.05;39.03
71194;BME280;58903;47.210;8.618;2024-03-07T09:35:41;94199.13;;;24.06;39.24
71194;BME280;58903;47.210;8.618;2024-03-07T09:38:11;94199.13;;;24.06;39.15
71194;BME280;58903;47.210;8.618;2024-03-07T09:40:47;94193.66;;;24.06;38.68
71194;BME280;58903;47.210;8.618;2024-03-07T09:43:19;94195.16;;;24.07;38.82
71194;BME280;58903;47.210;8.618;2024-03-07T09:45:49;94193.88;;;24.08;39.44
71194;BME280;58903;47.210;8.618;2024-03-07T09:48:15;94198.13;;;24.09;38.65
71194;BME280;58903;47.210;8.618;2024-03-07T09:50:46;94198.13;;;24.09;39.60
71194;BME280;58903;47.210;8.618;2024-03-07T09:53:20;94206.63;;;24.11;39.96
71194;BME280;58903;47.210;8.618;2024-03-07T09:55:53;94196.88;;;24.10;39.79
71194;BME280;58903;47.210;8.618;2024-03-07T09:58:20;94193.88;;;24.08;39.49
71194;BME280;58903;47.210;8.618;2024-03-07T10:00:49;94194.88;;;24.11;39.68
71194;BME280;58903;47.210;8.618;2024-03-07T10:03:20;94196.63;;;24.08;39.81
71194;BME280;58903;47.210;8.618;2024-03-07T10:05:49;94189.66;;;24.07;39.82
71194;BME280;58903;47.210;8.618;2024-03-07T10:08:16;94196.38;;;24.12;40.08
71194;BME280;58903;47.210;8.618;2024-03-07T10:10:44;94193.63;;;24.12;40.16
71194;BME280;58903;47.210;8.618;2024-03-07T10:13:35;94200.59;;;24.13;40.37
71194;BME280;58903;47.210;8.618;2024-03-07T10:16:29;94197.34;;;24.14;39.42
71194;BME280;58903;47.210;8.618;2024-03-07T10:18:55;94191.13;;;24.14;39.30
71194;BME280;58903;47.210;8.618;2024-03-07T10:21:23;94191.84;;;24.14;39.53
71194;BME280;58903;47.210;8.618;2024-03-07T10:24:11;94198.09;;;24.15;39.68
71194;BME280;58903;47.210;8.618;2024-03-07T10:27:06;94193.34;;;24.15;39.98
71194;BME280;58903;47.210;8.618;2024-03-07T10:29:46;94194.88;;;24.16;40.32
71194;BME280;58903;47.210;8.618;2024-03-07T10:32:12;94187.63;;;24.13;40.28
71194;BME280;58903;47.210;8.618;2024-03-07T10:34:41;94193.13;;;24.13;39.62
71194;BME280;58903;47.210;8.618;2024-03-07T10:37:12;94195.59;;;24.17;39.82
71194;BME280;58903;47.210;8.618;2024-03-07T10:39:46;94180.88;;;24.14;40.27
71194;BME280;58903;47.210;8.618;2024-03-07T10:42:18;94167.63;;;24.13;40.03
71194;BME280;58903;47.210;8.618;2024-03-07T10:44:46;94186.88;;;24.18;40.24
71194;BME280;58903;47.210;8.618;2024-03-07T10:47:20;94184.13;;;24.18;40.32
71194;BME280;58903;47.210;8.618;2024-03-07T10:50:04;94180.88;;;24.14;40.43
71194;BME280;58903;47.210;8.618;2024-03-07T10:52:58;94190.34;;;24.19;40.42
71194;BME280;58903;47.210;8.618;2024-03-07T10:55:33;94178.88;;;24.15;40.60
71194;BME280;58903;47.210;8.618;2024-03-07T10:58:13;94186.13;;;24.18;40.50
71194;BME280;58903;47.210;8.618;2024-03-07T11:00:41;94184.84;;;24.19;40.31
71194;BME280;58903;47.210;8.618;2024-03-07T11:03:14;94179.34;;;24.19;40.48
71194;BME280;58903;47.210;8.618;2024-03-07T11:05:43;94187.34;;;24.22;40.54
71194;BME280;58903;47.210;8.618;2024-03-07T11:08:10;94185.59;;;24.19;40.40
71194;BME280;58903;47.210;8.618;2024-03-07T11:10:40;94190.09;;;24.22;40.79
71194;BME280;58903;47.210;8.618;2024-03-07T11:13:09;94191.09;;;24.25;41.11
71194;BME280;58903;47.210;8.618;2024-03-07T11:15:43;94185.34;;;24.23;41.01
71194;BME280;58903;47.210;8.618;2024-03-07T11:19:17;94182.09;;;24.24;40.46
71194;BME280;58903;47.210;8.618;2024-03-07T11:21:43;94170.63;;;24.20;40.84
71194;BME280;58903;47.210;8.618;2024-03-07T11:24:48;94183.56;;;24.25;40.72
71194;BME280;58903;47.210;8.618;2024-03-07T11:27:25;94180.09;;;24.25;41.11
71194;BME280;58903;47.210;8.618;2024-03-07T11:30:20;94172.56;;;24.25;40.98
71194;BME280;58903;47.210;8.618;2024-03-07T11:32:52;94167.06;;;24.25;41.23
71194;BME280;58903;47.210;8.618;2024-03-07T11:35:47;94159.59;;;24.26;41.66
71194;BME280;58903;47.210;8.618;2024-03-07T11:38:34;94156.09;;;24.25;41.74
71194;BME280;58903;47.210;8.618;2024-03-07T11:41:06;94156.84;;;24.26;41.35
71194;BME280;58903;47.210;8.618;2024-03-07T11:43:40;94157.59;;;24.26;40.90
71194;BME280;58903;47.210;8.618;2024-03-07T11:46:10;94159.06;;;24.27;41.42
71194;BME280;58903;47.210;8.618;2024-03-07T11:48:42;94152.09;;;24.26;41.72
71194;BME280;58903;47.210;8.618;2024-03-07T11:51:14;94146.13;;;24.22;41.40
71194;BME280;58903;47.210;8.618;2024-03-07T11:53:46;94155.06;;;24.28;40.97
71194;BME280;58903;47.210;8.618;2024-03-07T11:56:37;94155.06;;;24.28;41.08
71194;BME280;58903;47.210;8.618;2024-03-07T11:59:29;94155.06;;;24.28;40.86
71194;BME280;58903;47.210;8.618;2024-03-07T12:02:13;94148.06;;;24.27;41.28
71194;BME280;58903;47.210;8.618;2024-03-07T12:04:54;94149.59;;;24.28;41.81
71194;BME280;58903;47.210;8.618;2024-03-07T12:07:39;94146.84;;;24.28;41.29
71194;BME280;58903;47.210;8.618;2024-03-07T12:10:06;94141.34;;;24.28;41.63
71194;BME280;58903;47.210;8.618;2024-03-07T12:12:53;94144.09;;;24.28;41.15
71194;BME280;58903;47.210;8.618;2024-03-07T12:15:23;94133.38;;;24.25;41.64
71194;BME280;58903;47.210;8.618;2024-03-07T12:17:56;94138.06;;;24.30;41.79
71194;BME280;58903;47.210;8.618;2024-03-07T12:23:47;94129.81;;;24.30;41.65
71194;BME280;58903;47.210;8.618;2024-03-07T12:26:21;94114.38;;;24.27;41.92
71194;BME280;58903;47.210;8.618;2024-03-07T12:28:55;94121.88;;;24.26;41.80
71194;BME280;58903;47.210;8.618;2024-03-07T12:31:24;94121.34;;;24.28;41.58
71194;BME280;58903;47.210;8.618;2024-03-07T12:33:51;94128.06;;;24.32;41.98
71194;BME280;58903;47.210;8.618;2024-03-07T12:36:17;94121.81;;;24.32;42.18
71194;BME280;58903;47.210;8.618;2024-03-07T12:38:42;94122.84;;;24.29;41.73
71194;BME280;58903;47.210;8.618;2024-03-07T12:41:10;94128.06;;;24.32;41.39
71194;BME280;58903;47.210;8.618;2024-03-07T12:43:43;94124.06;;;24.33;41.70
71194;BME280;58903;47.210;8.618;2024-03-07T12:46:13;94114.09;;;24.30;41.96
71194;BME280;58903;47.210;8.618;2024-03-07T12:48:43;94122.56;;;24.32;41.98
71194;BME280;58903;47.210;8.618;2024-03-07T12:51:15;94107.84;;;24.30;41.59
71194;BME280;58903;47.210;8.618;2024-03-07T12:53:48;94109.59;;;24.27;41.77
71194;BME280;58903;47.210;8.618;2024-03-07T12:56:23;94113.09;;;24.33;42.06
71194;BME280;58903;47.210;8.618;2024-03-07T12:58:53;94117.81;;;24.33;42.00
71194;BME280;58903;47.210;8.618;2024-03-07T13:01:26;94111.06;;;24.34;41.84
71194;BME280;58903;47.210;8.618;2024-03-07T13:03:54;94114.56;;;24.34;41.90
71194;BME280;58903;47.210;8.618;2024-03-07T13:06:34;94110.56;;;24.35;41.80
71194;BME280;58903;47.210;8.618;2024-03-07T13:09:02;94109.06;;;24.34;41.99
71194;BME280;58903;47.210;8.618;2024-03-07T13:11:40;94110.56;;;24.35;42.04
71194;BME280;58903;47.210;8.618;2024-03-07T13:14:27;94110.56;;;24.35;41.94
71194;BME280;58903;47.210;8.618;2024-03-07T13:17:00;94117.53;;;24.36;42.33
71194;BME280;58903;47.210;8.618;2024-03-07T13:19:40;94115.56;;;24.37;42.07
71194;BME280;58903;47.210;8.618;2024-03-07T13:22:30;94111.31;;;24.36;41.96
71194;BME280;58903;47.210;8.618;2024-03-07T13:24:58;94116.06;;;24.35;42.06
71194;BME280;58903;47.210;8.618;2024-03-07T13:27:43;94113.56;;;24.37;42.24
71194;BME280;58903;47.210;8.618;2024-03-07T13:30:11;94113.56;;;24.37;42.05
71194;BME280;58903;47.210;8.618;2024-03-07T13:32:48;94111.56;;;24.38;42.43
71194;BME280;58903;47.210;8.618;2024-03-07T13:35:45;94112.28;;;24.38;42.68
71194;BME280;58903;47.210;8.618;2024-03-07T13:38:21;94103.81;;;24.36;42.50
71194;BME280;58903;47.210;8.618;2024-03-07T13:40:47;94108.81;;;24.38;42.33
71194;BME280;58903;47.210;8.618;2024-03-07T13:43:25;94104.78;;;24.39;42.50
71194;BME280;58903;47.210;8.618;2024-03-07T13:45:51;94111.03;;;24.39;42.73
71194;BME280;58903;47.210;8.618;2024-03-07T13:48:20;94110.28;;;24.39;42.51
71194;BME280;58903;47.210;8.618;2024-03-07T13:50:48;94110.28;;;24.39;42.73
71194;BME280;58903;47.210;8.618;2024-03-07T13:53:33;94109.53;;;24.38;42.61
71194;BME280;58903;47.210;8.618;2024-03-07T13:56:47;94109.53;;;24.38;42.10
71194;BME280;58903;47.210;8.618;2024-03-07T14:05:59;94105.78;;;24.41;42.55
71194;BME280;58903;47.210;8.618;2024-03-07T14:08:45;94097.56;;;24.36;37.81
71194;BME280;58903;47.210;8.618;2024-03-07T14:31:55;94093.47;;;24.02;32.94
71194;BME280;58903;47.210;8.618;2024-03-07T14:37:53;94086.50;;;24.01;33.82